Silvis, Illinois
Current Conditions -  °F | °C
As of 2:52 PM on Tuesday 27 Jan 2015 (Local Time) from KMLI Reporting Station
Overcast Overcast  
Wind Chill: 25°   Ceiling: 1700
Heat Index: 30°   Visibility: 7mi
Dew Point: 22°   Wind: 5mph
Humidity: 72%   Direction: 90°E
Pressure: 30.2"   Gusts: NA
Location:  41.51°N, 90.41°W
Report Text: KMLI 272052Z 09004KT 7SM OVC017 M01/M06 A3020 RMK AO2 SLP234 T10111056 53003
Loading
Personal Weather Stations






























Interactive Weather Map New forecast layout! Learn more

10-Day Weather Forecast

Advertisements
Track Severe Weather on mobile